createdAt,value
2018-09-13T00:00:14.729Z,15.70
2018-09-13T00:01:14.741Z,15.70
2018-09-13T00:02:14.992Z,16.00
2018-09-13T00:03:14.697Z,15.90
2018-09-13T00:04:14.959Z,15.60
2018-09-13T00:05:14.677Z,15.60
2018-09-13T00:06:14.663Z,15.60
2018-09-13T00:07:14.657Z,16.50
2018-09-13T00:08:14.644Z,15.20
2018-09-13T00:09:14.892Z,15.40
2018-09-13T00:10:14.631Z,15.70
2018-09-13T00:11:14.628Z,16.90
2018-09-13T00:12:14.622Z,15.60
2018-09-13T00:13:14.594Z,16.30
2018-09-13T00:14:14.573Z,16.30
2018-09-13T00:15:14.571Z,16.20
2018-09-13T00:16:14.820Z,14.90
2018-09-13T00:17:14.545Z,14.60
2018-09-13T00:18:14.550Z,15.10
2018-09-13T00:19:14.527Z,14.90
2018-09-13T00:20:14.510Z,14.70
2018-09-13T00:21:14.506Z,15.70
2018-09-13T00:22:14.755Z,15.30
2018-09-13T00:23:14.499Z,15.10
2018-09-13T00:24:14.494Z,14.70
2018-09-13T00:25:14.457Z,15.90
2018-09-13T00:26:14.458Z,14.70
2018-09-13T00:27:14.716Z,16.00
2018-09-13T00:28:14.423Z,15.00
2018-09-13T00:29:15.594Z,15.30
2018-09-13T00:30:14.418Z,15.60
2018-09-13T00:31:14.402Z,15.80
2018-09-13T00:32:14.423Z,15.40
2018-09-13T00:33:14.387Z,15.90
2018-09-13T00:34:14.373Z,15.10
2018-09-13T00:35:14.362Z,15.10
2018-09-13T00:36:14.332Z,15.40
2018-09-13T00:37:14.326Z,14.60
2018-09-13T00:38:14.573Z,15.20
2018-09-13T00:39:14.314Z,15.20
2018-09-13T00:40:14.307Z,15.20
2018-09-13T00:41:14.285Z,15.30
2018-09-13T00:42:14.599Z,16.20
2018-09-13T00:43:14.266Z,15.30
2018-09-13T00:44:14.247Z,15.30
2018-09-13T00:45:14.499Z,15.00
2018-09-13T00:46:14.240Z,14.60
2018-09-13T00:47:14.230Z,14.70
2018-09-13T00:48:14.207Z,14.00
2018-09-13T00:49:14.192Z,15.10
2018-09-13T00:50:14.452Z,14.10
2018-09-13T00:51:14.171Z,14.40
2018-09-13T00:52:14.286Z,14.40
2018-09-13T00:53:14.428Z,14.50
2018-09-13T00:54:14.139Z,14.80
2018-09-13T00:55:14.182Z,15.60
2018-09-13T00:56:14.373Z,14.60
2018-09-13T00:57:14.110Z,14.80
2018-09-13T00:58:14.107Z,15.10
2018-09-13T00:59:14.089Z,15.10
2018-09-13T01:00:14.079Z,14.10
2018-09-13T01:01:14.064Z,14.90
2018-09-13T01:02:14.049Z,14.70
2018-09-13T01:03:14.298Z,14.70
2018-09-13T01:04:14.294Z,13.10
2018-09-13T01:05:14.016Z,13.90
2018-09-13T01:06:14.011Z,15.00
2018-09-13T01:07:13.995Z,14.30
2018-09-13T01:08:13.990Z,14.10
2018-09-13T01:09:14.232Z,14.00
2018-09-13T01:10:14.231Z,14.70
2018-09-13T01:11:13.952Z,14.30
2018-09-13T01:12:13.950Z,13.90
2018-09-13T01:13:13.937Z,14.40
2018-09-13T01:14:13.919Z,14.20
2018-09-13T01:15:13.919Z,13.70
2018-09-13T01:16:13.912Z,13.50
2018-09-13T01:17:14.145Z,14.00
2018-09-13T01:18:14.023Z,14.00
2018-09-13T01:19:14.144Z,14.40
2018-09-13T01:20:13.885Z,14.10
2018-09-13T01:21:13.848Z,14.10
2018-09-13T01:22:13.837Z,13.70
2018-09-13T01:23:14.091Z,13.70
2018-09-13T01:24:13.812Z,14.30
2018-09-13T01:25:13.799Z,14.10
2018-09-13T01:26:13.785Z,13.40
2018-09-13T01:27:13.785Z,13.40
2018-09-13T01:28:14.031Z,15.30
2018-09-13T01:29:13.763Z,14.30
2018-09-13T01:30:14.016Z,15.10
2018-09-13T01:31:13.729Z,14.20
2018-09-13T01:32:13.731Z,13.60
2018-09-13T01:33:13.724Z,14.30
2018-09-13T01:34:13.707Z,14.20
2018-09-13T01:35:13.700Z,14.10
2018-09-13T01:36:13.680Z,15.30
2018-09-13T01:37:13.936Z,13.90
2018-09-13T01:38:13.923Z,14.20
2018-09-13T01:39:13.804Z,13.20
2018-09-13T01:40:13.653Z,14.10
2018-09-13T01:41:14.359Z,14.40
2018-09-13T01:42:13.877Z,13.80
2018-09-13T01:43:13.613Z,13.80
2018-09-13T01:44:13.593Z,14.60
2018-09-13T01:45:13.584Z,14.20
2018-09-13T01:46:13.579Z,13.60
2018-09-13T01:47:13.562Z,13.60
2018-09-13T01:48:14.551Z,13.60
2018-09-13T01:49:13.549Z,13.40
2018-09-13T01:50:13.525Z,12.80
2018-09-13T01:51:13.829Z,13.30
2018-09-13T01:52:13.516Z,13.90
2018-09-13T01:53:13.491Z,14.50
2018-09-13T01:54:13.492Z,14.30
2018-09-13T01:55:13.470Z,14.10
2018-09-13T01:56:13.463Z,13.90
2018-09-13T01:57:13.459Z,13.00
2018-09-13T01:58:13.456Z,13.20
2018-09-13T01:59:13.428Z,14.30
2018-09-13T02:00:13.428Z,14.40
2018-09-13T02:01:13.407Z,14.00
2018-09-13T02:02:13.662Z,13.90
2018-09-13T02:03:13.426Z,13.90
2018-09-13T02:04:13.376Z,13.20
2018-09-13T02:05:13.709Z,13.90
2018-09-13T02:06:13.615Z,13.30
2018-09-13T02:07:13.601Z,14.70
2018-09-13T02:08:13.334Z,14.50
2018-09-13T02:09:13.318Z,14.10
2018-09-13T02:10:13.582Z,14.60
2018-09-13T02:11:13.296Z,14.30
2018-09-13T02:12:13.546Z,14.50
2018-09-13T02:13:13.283Z,14.60
2018-09-13T02:14:13.272Z,14.10
2018-09-13T02:15:13.520Z,14.60
2018-09-13T02:16:13.500Z,14.90
2018-09-13T02:17:13.338Z,14.60
2018-09-13T02:18:13.214Z,15.00
2018-09-13T02:19:13.222Z,14.30
2018-09-13T02:20:13.205Z,14.10
2018-09-13T02:21:13.863Z,14.90
2018-09-13T02:22:13.448Z,14.30
2018-09-13T02:23:13.519Z,14.00
2018-09-13T02:24:13.153Z,15.30
2018-09-13T02:25:13.145Z,14.30
2018-09-13T02:26:13.394Z,14.90
2018-09-13T02:27:13.375Z,14.70
2018-09-13T02:28:13.109Z,15.00
2018-09-13T02:29:13.365Z,14.10
2018-09-13T02:30:13.085Z,14.40
2018-09-13T02:31:13.073Z,14.60
2018-09-13T02:32:13.332Z,14.30
2018-09-13T02:33:13.065Z,14.70
2018-09-13T02:34:13.046Z,14.30
2018-09-13T02:35:13.048Z,14.70
2018-09-13T02:36:13.294Z,15.20
2018-09-13T02:37:13.014Z,14.90
2018-09-13T02:38:12.996Z,15.30
2018-09-13T02:39:13.253Z,15.20
2018-09-13T02:40:12.974Z,15.30
2018-09-13T02:41:12.978Z,15.30
2018-09-13T02:42:13.227Z,14.90
2018-09-13T02:43:12.941Z,14.90
2018-09-13T02:44:12.994Z,14.70
2018-09-13T02:45:13.200Z,14.90
2018-09-13T02:46:13.179Z,14.60
2018-09-13T02:47:13.433Z,15.10
2018-09-13T02:48:12.894Z,15.50
2018-09-13T02:49:12.944Z,14.80
2018-09-13T02:50:12.866Z,15.20
2018-09-13T02:51:12.859Z,15.80
2018-09-13T02:52:12.854Z,15.50
2018-09-13T02:53:13.124Z,15.60
2018-09-13T02:54:12.835Z,16.40
2018-09-13T02:55:12.817Z,15.40
2018-09-13T02:56:12.934Z,15.30
2018-09-13T02:57:12.794Z,15.20
2018-09-13T02:58:13.780Z,15.00
2018-09-13T02:59:12.778Z,16.20
2018-09-13T03:00:12.763Z,15.40
2018-09-13T03:01:12.761Z,17.20
2018-09-13T03:02:13.154Z,16.50
2018-09-13T03:03:12.725Z,16.80
2018-09-13T03:04:12.714Z,17.70
2018-09-13T03:05:12.976Z,17.20
2018-09-13T03:06:12.688Z,16.90
2018-09-13T03:07:12.683Z,18.00
2018-09-13T03:08:12.683Z,16.70
2018-09-13T03:09:12.673Z,17.00
2018-09-13T03:10:12.665Z,16.90
2018-09-13T03:11:12.685Z,16.50
2018-09-13T03:12:12.663Z,16.30
2018-09-13T03:13:12.895Z,16.60
2018-09-13T03:14:12.621Z,17.20
2018-09-13T03:15:12.864Z,17.50
2018-09-13T03:16:12.580Z,17.70
2018-09-13T03:17:12.580Z,19.70
2018-09-13T03:18:12.557Z,20.70
2018-09-13T03:19:12.550Z,19.60
2018-09-13T03:20:12.538Z,20.90
2018-09-13T03:21:12.528Z,20.40
2018-09-13T03:22:12.511Z,20.40
2018-09-13T03:23:12.505Z,20.10
2018-09-13T03:24:12.495Z,19.60
2018-09-13T03:25:12.496Z,20.90
2018-09-13T03:26:12.474Z,20.80
2018-09-13T03:27:12.723Z,23.10
2018-09-13T03:28:12.446Z,21.70
2018-09-13T03:29:12.727Z,21.70
2018-09-13T03:30:12.429Z,20.90
2018-09-13T03:31:12.420Z,21.60
2018-09-13T03:32:12.403Z,21.20
2018-09-13T03:33:12.400Z,21.50
2018-09-13T03:34:12.389Z,21.40
2018-09-13T03:35:12.396Z,21.70
2018-09-13T03:36:12.382Z,22.80
2018-09-13T03:37:12.370Z,22.00
2018-09-13T03:38:12.351Z,21.40
2018-09-13T03:39:12.330Z,20.90
2018-09-13T03:40:12.326Z,22.80
2018-09-13T03:41:12.332Z,23.20
2018-09-13T03:42:12.301Z,22.50
2018-09-13T03:43:12.295Z,22.80
2018-09-13T03:44:12.281Z,21.30
2018-09-13T03:45:12.280Z,20.80
2018-09-13T03:46:12.392Z,22.70
2018-09-13T03:47:12.509Z,21.50
2018-09-13T03:48:12.237Z,22.20
2018-09-13T03:49:12.226Z,22.00
2018-09-13T03:50:12.211Z,21.30
2018-09-13T03:51:12.202Z,21.70
2018-09-13T03:52:12.187Z,23.40
2018-09-13T03:53:12.189Z,21.30
2018-09-13T03:54:12.163Z,21.90
2018-09-13T03:55:12.153Z,22.20
2018-09-13T03:56:12.140Z,22.70
2018-09-13T03:57:12.128Z,22.70
2018-09-13T03:58:12.198Z,22.60
2018-09-13T03:59:12.633Z,22.50
2018-09-13T04:00:12.103Z,23.60
2018-09-13T04:01:12.085Z,22.80
2018-09-13T04:02:12.343Z,23.70
2018-09-13T04:03:12.101Z,22.20
2018-09-13T04:04:12.059Z,22.50
2018-09-13T04:05:12.041Z,21.20
2018-09-13T04:06:12.035Z,24.00
2018-09-13T04:07:12.286Z,23.10
2018-09-13T04:08:12.009Z,23.80
2018-09-13T04:09:12.049Z,23.00
2018-09-13T04:10:12.002Z,22.50
2018-09-13T04:11:11.978Z,23.00
2018-09-13T04:12:11.969Z,23.50
2018-09-13T04:13:11.990Z,24.40
2018-09-13T04:14:11.944Z,22.90
2018-09-13T04:15:12.210Z,23.60
2018-09-13T04:16:11.933Z,23.70
2018-09-13T04:17:11.929Z,23.70
2018-09-13T04:18:12.017Z,23.80
2018-09-13T04:19:11.888Z,24.90
2018-09-13T04:20:12.145Z,24.40
2018-09-13T04:21:11.877Z,23.80
2018-09-13T04:22:11.852Z,23.70
2018-09-13T04:23:11.860Z,25.00
2018-09-13T04:24:11.842Z,23.80
2018-09-13T04:25:11.853Z,25.30
2018-09-13T04:26:11.821Z,25.40
2018-09-13T04:27:11.820Z,23.00
2018-09-13T04:28:11.802Z,22.70
2018-09-13T04:29:11.811Z,23.50
2018-09-13T04:30:11.769Z,23.30
2018-09-13T04:31:11.763Z,24.20
2018-09-13T04:32:11.742Z,23.60
2018-09-13T04:33:11.851Z,23.90
2018-09-13T04:34:16.048Z,22.80
2018-09-13T04:35:11.732Z,24.60
2018-09-13T04:36:11.752Z,25.00
2018-09-13T04:37:11.695Z,23.00
2018-09-13T04:38:11.681Z,24.00
2018-09-13T04:39:12.045Z,25.30
2018-09-13T04:40:11.721Z,24.80
2018-09-13T04:41:11.657Z,24.70
2018-09-13T04:42:11.655Z,25.00
2018-09-13T04:43:11.624Z,23.30
2018-09-13T04:44:11.618Z,23.40
2018-09-13T04:45:11.606Z,25.20
2018-09-13T04:46:11.853Z,25.00
2018-09-13T04:47:11.599Z,24.60
2018-09-13T04:48:11.599Z,25.10
2018-09-13T04:49:11.666Z,24.10
2018-09-13T04:50:11.550Z,25.10
2018-09-13T04:51:11.556Z,24.70
2018-09-13T04:52:11.523Z,23.60
2018-09-13T04:53:11.517Z,24.00
2018-09-13T04:54:11.509Z,25.20
2018-09-13T04:55:11.508Z,25.70
2018-09-13T04:56:11.607Z,27.70
2018-09-13T04:57:11.487Z,25.10
2018-09-13T04:58:11.587Z,26.20
2018-09-13T04:59:11.447Z,25.70
2018-09-13T05:00:11.465Z,26.60
2018-09-13T05:01:11.693Z,26.70
2018-09-13T05:02:11.416Z,26.20
2018-09-13T05:03:11.419Z,27.00
2018-09-13T05:04:11.404Z,27.70
2018-09-13T05:05:11.383Z,28.50
2018-09-13T05:06:11.374Z,27.30
2018-09-13T05:07:11.374Z,29.00
2018-09-13T05:08:11.617Z,27.90
2018-09-13T05:09:11.456Z,28.30
2018-09-13T05:10:11.337Z,29.00
2018-09-13T05:11:11.328Z,28.50
2018-09-13T05:12:11.317Z,30.40
2018-09-13T05:13:11.299Z,28.40
2018-09-13T05:14:11.630Z,28.40
2018-09-13T05:15:11.333Z,29.70
2018-09-13T05:16:11.270Z,29.60
2018-09-13T05:17:11.261Z,29.50
2018-09-13T05:18:11.245Z,29.10
2018-09-13T05:19:11.248Z,29.20
2018-09-13T05:20:11.490Z,31.10
2018-09-13T05:21:11.427Z,30.60
2018-09-13T05:22:11.208Z,31.20
2018-09-13T05:23:11.193Z,30.90
2018-09-13T05:24:11.182Z,32.00
2018-09-13T05:25:11.174Z,32.00
2018-09-13T05:26:11.293Z,33.80
2018-09-13T05:27:11.152Z,31.70
2018-09-13T05:28:11.136Z,32.60
2018-09-13T05:29:11.121Z,33.10
2018-09-13T05:30:20.082Z,32.40
2018-09-13T05:31:12.114Z,34.90
2018-09-13T05:32:11.182Z,35.20
2018-09-13T05:33:11.343Z,35.50
2018-09-13T05:34:11.359Z,32.50
2018-09-13T05:35:11.063Z,34.80
2018-09-13T05:36:11.049Z,34.70
2018-09-13T05:37:11.048Z,34.10
2018-09-13T05:38:11.029Z,33.70
2018-09-13T05:39:11.021Z,33.40
2018-09-13T05:40:11.275Z,33.80
2018-09-13T05:41:10.993Z,34.70
2018-09-13T05:42:11.245Z,33.80
2018-09-13T05:43:10.966Z,34.50
2018-09-13T05:44:11.000Z,33.10
2018-09-13T05:45:11.730Z,34.30
2018-09-13T05:46:11.065Z,33.90
2018-09-13T05:47:11.208Z,33.00
2018-09-13T05:48:10.931Z,33.20
2018-09-13T05:49:11.053Z,34.20
2018-09-13T05:50:10.902Z,33.70
2018-09-13T05:51:10.904Z,32.20
2018-09-13T05:52:10.873Z,33.30
2018-09-13T05:53:10.862Z,32.90
2018-09-13T05:54:10.867Z,33.80
2018-09-13T05:55:11.126Z,32.10
2018-09-13T05:56:10.829Z,31.10
2018-09-13T05:57:10.822Z,30.00
2018-09-13T05:58:10.963Z,32.90
2018-09-13T05:59:10.794Z,34.00
2018-09-13T06:00:14.967Z,34.20
2018-09-13T06:01:10.895Z,34.40
2018-09-13T06:02:11.072Z,32.70
2018-09-13T06:03:10.777Z,32.30
2018-09-13T06:04:10.841Z,31.60
2018-09-13T06:05:10.727Z,30.80
2018-09-13T06:06:10.786Z,31.90
2018-09-13T06:07:10.966Z,33.60
2018-09-13T06:08:10.955Z,32.80
2018-09-13T06:09:10.693Z,32.30
2018-09-13T06:10:10.677Z,33.60
2018-09-13T06:11:10.675Z,32.20
2018-09-13T06:12:10.654Z,32.80
2018-09-13T06:13:10.658Z,33.00
2018-09-13T06:14:10.637Z,33.50
2018-09-13T06:15:20.192Z,32.50
2018-09-13T06:16:10.618Z,34.20
2018-09-13T06:17:10.608Z,34.40
2018-09-13T06:18:10.857Z,33.00
2018-09-13T06:19:10.777Z,32.40
2018-09-13T06:20:10.580Z,31.10
2018-09-13T06:21:10.668Z,30.40
2018-09-13T06:22:10.916Z,29.60
2018-09-13T06:23:10.536Z,29.10
2018-09-13T06:24:10.654Z,30.30
2018-09-13T06:25:10.508Z,29.60
2018-09-13T06:26:10.610Z,30.00
2018-09-13T06:27:10.496Z,29.70
2018-09-13T06:28:10.601Z,29.40
2018-09-13T06:29:10.469Z,29.40
2018-09-13T06:30:15.935Z,29.90
2018-09-13T06:31:10.463Z,29.80
2018-09-13T06:32:10.433Z,31.50
2018-09-13T06:33:10.464Z,28.50
2018-09-13T06:34:10.410Z,28.10
2018-09-13T06:35:10.419Z,27.20
2018-09-13T06:36:10.393Z,29.80
2018-09-13T06:37:10.758Z,28.80
2018-09-13T06:38:10.519Z,29.70
2018-09-13T06:39:10.357Z,29.60
2018-09-13T06:40:10.465Z,28.50
2018-09-13T06:41:10.358Z,29.40
2018-09-13T06:42:10.331Z,30.30
2018-09-13T06:43:10.709Z,28.70
2018-09-13T06:44:10.336Z,28.70
2018-09-13T06:45:13.002Z,29.10
2018-09-13T06:46:10.282Z,29.90
2018-09-13T06:47:10.373Z,28.90
2018-09-13T06:48:10.383Z,29.40
2018-09-13T06:49:10.276Z,28.50
2018-09-13T06:50:10.378Z,29.10
2018-09-13T06:51:10.245Z,28.40
2018-09-13T06:52:10.372Z,28.00
2018-09-13T06:53:10.347Z,28.40
2018-09-13T06:54:10.505Z,27.20
2018-09-13T06:55:10.321Z,27.20
2018-09-13T06:56:10.183Z,27.80
2018-09-13T06:57:11.401Z,28.30
2018-09-13T06:58:10.318Z,28.40
2018-09-13T06:59:10.138Z,29.00
2018-09-13T07:00:12.182Z,29.40
2018-09-13T07:01:10.208Z,29.60
2018-09-13T07:02:10.117Z,28.50
2018-09-13T07:03:10.096Z,27.90
2018-09-13T07:04:10.105Z,27.70
2018-09-13T07:05:10.087Z,26.90
2018-09-13T07:06:10.058Z,27.50
2018-09-13T07:07:10.055Z,26.90
2018-09-13T07:08:10.043Z,27.60
2018-09-13T07:09:10.089Z,27.30
2018-09-13T07:10:10.062Z,27.10
2018-09-13T07:11:10.026Z,28.10
2018-09-13T07:12:10.038Z,26.60
2018-09-13T07:13:09.989Z,28.30
2018-09-13T07:14:10.161Z,28.10
2018-09-13T07:15:22.173Z,28.20
2018-09-13T07:16:10.694Z,29.00
2018-09-13T07:17:09.956Z,28.80
2018-09-13T07:18:09.995Z,29.30
2018-09-13T07:19:09.936Z,28.10
2018-09-13T07:20:09.919Z,28.70
2018-09-13T07:21:09.966Z,28.90
2018-09-13T07:22:09.939Z,27.90
2018-09-13T07:23:10.280Z,29.00
2018-09-13T07:24:09.863Z,27.90
2018-09-13T07:25:10.094Z,27.70
2018-09-13T07:26:09.854Z,28.60
2018-09-13T07:27:09.839Z,27.10
2018-09-13T07:28:09.839Z,27.30
2018-09-13T07:29:09.831Z,27.80
2018-09-13T07:30:15.254Z,29.00
2018-09-13T07:31:09.803Z,27.50
2018-09-13T07:32:09.933Z,27.60
2018-09-13T07:33:09.765Z,29.40
2018-09-13T07:34:09.755Z,28.50
2018-09-13T07:35:10.137Z,29.20
2018-09-13T07:36:09.729Z,28.00
2018-09-13T07:37:09.717Z,28.50
2018-09-13T07:38:09.731Z,28.60
2018-09-13T07:39:09.773Z,28.70
2018-09-13T07:40:09.681Z,29.30
2018-09-13T07:41:09.722Z,28.70
2018-09-13T07:42:09.674Z,29.00
2018-09-13T07:43:09.683Z,28.20
2018-09-13T07:44:09.653Z,28.10
2018-09-13T07:45:20.557Z,28.70
2018-09-13T07:46:09.694Z,28.90
2018-09-13T07:47:09.615Z,29.80
2018-09-13T07:48:10.139Z,28.80
2018-09-13T07:49:09.630Z,28.50
2018-09-13T07:50:09.628Z,28.60
2018-09-13T07:51:09.578Z,26.70
2018-09-13T07:52:09.680Z,27.20
2018-09-13T07:53:09.566Z,27.50
2018-09-13T07:54:09.652Z,27.60
2018-09-13T07:55:09.549Z,26.40
2018-09-13T07:56:09.560Z,26.80
2018-09-13T07:57:09.622Z,25.90
2018-09-13T07:58:09.516Z,26.40
2018-09-13T07:59:09.755Z,25.40
2018-09-13T08:00:14.203Z,25.80
2018-09-13T08:01:11.931Z,24.90
2018-09-13T08:02:09.444Z,26.60
2018-09-13T08:03:09.460Z,26.40
2018-09-13T08:04:09.423Z,25.30
2018-09-13T08:05:10.173Z,27.00
2018-09-13T08:06:09.415Z,25.90
2018-09-13T08:07:09.446Z,24.90
2018-09-13T08:08:09.631Z,26.00
2018-09-13T08:09:09.634Z,25.20
2018-09-13T08:10:09.366Z,26.00
2018-09-13T08:11:09.878Z,26.50
2018-09-13T08:12:09.534Z,26.70
2018-09-13T08:13:09.329Z,24.00
2018-09-13T08:14:09.633Z,22.90
2018-09-13T08:15:17.205Z,24.00
2018-09-13T08:16:09.307Z,24.10
2018-09-13T08:17:09.560Z,23.10
2018-09-13T08:18:09.283Z,23.00
2018-09-13T08:19:09.543Z,23.90
2018-09-13T08:20:09.257Z,23.90
2018-09-13T08:21:09.520Z,22.60
2018-09-13T08:22:09.278Z,22.90
2018-09-13T08:23:09.243Z,23.80
2018-09-13T08:24:09.238Z,24.80
2018-09-13T08:25:09.208Z,24.90
2018-09-13T08:26:09.478Z,23.20
2018-09-13T08:27:09.287Z,24.20
2018-09-13T08:28:09.702Z,25.90
2018-09-13T08:29:09.145Z,25.00
2018-09-13T08:30:23.167Z,25.00
2018-09-13T08:31:09.138Z,21.90
2018-09-13T08:32:09.391Z,22.50
2018-09-13T08:33:09.139Z,24.20
2018-09-13T08:34:09.380Z,22.70
2018-09-13T08:35:09.185Z,24.10
2018-09-13T08:36:09.087Z,24.10
2018-09-13T08:37:09.308Z,23.20
2018-09-13T08:38:09.059Z,23.60
2018-09-13T08:39:09.313Z,23.00
2018-09-13T08:40:09.064Z,23.10
2018-09-13T08:41:09.376Z,22.70
2018-09-13T08:42:09.054Z,23.70
2018-09-13T08:43:09.497Z,22.90
2018-09-13T08:44:09.261Z,22.80
2018-09-13T08:45:09.616Z,23.80
2018-09-13T08:46:09.280Z,22.80
2018-09-13T08:47:09.155Z,23.40
2018-09-13T08:48:08.947Z,22.40
2018-09-13T08:49:09.000Z,23.40
2018-09-13T08:50:08.939Z,24.60
2018-09-13T08:51:09.241Z,24.50
2018-09-13T08:52:09.007Z,24.70
2018-09-13T08:53:08.969Z,24.40
2018-09-13T08:54:08.883Z,23.60
2018-09-13T08:55:08.909Z,24.60
2018-09-13T08:56:08.864Z,24.30
2018-09-13T08:57:09.110Z,24.00
2018-09-13T08:58:09.042Z,24.00
2018-09-13T08:59:08.820Z,22.80
2018-09-13T09:00:09.344Z,25.00
2018-09-13T09:01:08.808Z,24.50
2018-09-13T09:02:08.785Z,24.20
2018-09-13T09:03:09.046Z,24.70
2018-09-13T09:04:08.979Z,22.40
2018-09-13T09:05:08.839Z,22.40
2018-09-13T09:06:08.832Z,22.30
2018-09-13T09:07:08.956Z,23.30
2018-09-13T09:08:08.728Z,22.70
2018-09-13T09:09:08.815Z,23.20
2018-09-13T09:10:08.839Z,22.40
2018-09-13T09:11:08.707Z,23.70
2018-09-13T09:12:08.746Z,23.30
2018-09-13T09:13:08.689Z,22.80
2018-09-13T09:14:09.011Z,23.60
2018-09-13T09:15:23.800Z,24.40
2018-09-13T09:16:08.649Z,23.90
2018-09-13T09:17:08.657Z,23.80
2018-09-13T09:18:08.624Z,23.90
2018-09-13T09:19:09.163Z,26.50
2018-09-13T09:20:08.596Z,24.80
2018-09-13T09:21:08.589Z,25.00
2018-09-13T09:22:09.111Z,25.70
2018-09-13T09:23:10.929Z,24.80
2018-09-13T09:24:08.942Z,23.20
2018-09-13T09:25:08.538Z,23.70
2018-09-13T09:26:08.539Z,23.40
2018-09-13T09:27:08.529Z,23.80
2018-09-13T09:28:08.529Z,23.70
2018-09-13T09:29:08.513Z,23.50
2018-09-13T09:30:08.998Z,24.30
2018-09-13T09:31:09.912Z,23.40
2018-09-13T09:32:08.582Z,24.50
2018-09-13T09:33:08.448Z,25.70
2018-09-13T09:34:08.590Z,24.70
2018-09-13T09:35:08.540Z,26.00
2018-09-13T09:36:08.745Z,23.80
2018-09-13T09:37:09.010Z,24.00
2018-09-13T09:38:08.392Z,23.80
2018-09-13T09:39:08.816Z,24.10
2018-09-13T09:40:08.378Z,22.70
2018-09-13T09:41:08.366Z,23.10
2018-09-13T09:42:08.684Z,24.30
2018-09-13T09:43:08.345Z,23.80
2018-09-13T09:44:08.380Z,23.30
2018-09-13T09:45:18.047Z,25.90
2018-09-13T09:46:08.324Z,24.30
2018-09-13T09:47:08.326Z,25.70
2018-09-13T09:48:08.468Z,24.90
2018-09-13T09:49:08.554Z,25.50
2018-09-13T09:50:08.290Z,26.30
2018-09-13T09:51:08.280Z,25.60
2018-09-13T09:52:08.268Z,25.50
2018-09-13T09:53:08.323Z,25.40
2018-09-13T09:54:08.236Z,25.70
2018-09-13T09:55:13.886Z,25.30
2018-09-13T09:56:08.247Z,25.60
2018-09-13T09:57:08.590Z,24.90
2018-09-13T09:58:08.244Z,23.10
2018-09-13T09:59:08.267Z,23.90
2018-09-13T10:00:08.611Z,23.00
2018-09-13T10:01:11.519Z,23.90
2018-09-13T10:02:08.785Z,22.40
2018-09-13T10:03:09.587Z,20.20
2018-09-13T10:04:20.486Z,20.60
2018-09-13T10:05:30.324Z,20.90
2018-09-13T10:06:08.401Z,20.60
2018-09-13T10:07:08.093Z,20.90
2018-09-13T10:08:20.669Z,20.50
2018-09-13T10:09:08.250Z,20.30
2018-09-13T10:10:08.595Z,20.80
2018-09-13T10:11:26.548Z,20.50
2018-09-13T10:12:08.314Z,20.90
2018-09-13T10:13:11.547Z,20.70
2018-09-13T10:14:08.038Z,22.40
2018-09-13T10:15:08.475Z,23.90
2018-09-13T10:18:09.703Z,22.20
2018-09-13T10:19:08.279Z,22.50
2018-09-13T10:20:08.252Z,23.40
2018-09-13T10:21:08.546Z,22.30
2018-09-13T10:22:12.843Z,21.10
2018-09-13T10:23:33.598Z,22.00
2018-09-13T10:25:09.107Z,20.80
2018-09-13T10:26:08.464Z,20.40
2018-09-13T10:27:07.891Z,20.30
2018-09-13T10:28:08.595Z,20.40
2018-09-13T10:29:09.254Z,18.70
2018-09-13T10:30:15.120Z,19.70
2018-09-13T10:31:08.474Z,20.70
2018-09-13T10:32:08.395Z,20.30
2018-09-13T10:33:08.770Z,20.80
2018-09-13T10:34:08.284Z,21.70
2018-09-13T10:35:11.993Z,21.70
2018-09-13T10:36:07.913Z,22.20
2018-09-13T10:38:07.739Z,22.70
2018-09-13T10:39:07.735Z,23.00
2018-09-13T10:40:09.485Z,24.10
2018-09-13T10:41:07.780Z,23.10
2018-09-13T10:42:11.013Z,24.00
2018-09-13T10:43:08.139Z,24.30
2018-09-13T10:44:07.752Z,24.10
2018-09-13T10:45:26.767Z,23.60
2018-09-13T10:46:08.081Z,23.40
2018-09-13T10:47:08.512Z,25.20
2018-09-13T10:48:07.725Z,24.60
2018-09-13T10:49:07.640Z,25.30
2018-09-13T10:50:07.629Z,24.70
2018-09-13T10:51:19.218Z,25.80
2018-09-13T10:52:07.987Z,24.10
2018-09-13T10:53:08.708Z,24.80
2018-09-13T10:54:07.654Z,25.40
2018-09-13T10:55:12.271Z,24.60
2018-09-13T10:56:08.338Z,24.90
2018-09-13T10:57:08.803Z,24.90
2018-09-13T10:58:09.747Z,24.00
2018-09-13T10:59:10.139Z,24.40
2018-09-13T11:00:08.164Z,24.60
2018-09-13T11:01:07.859Z,23.90
2018-09-13T11:02:07.490Z,23.90
2018-09-13T11:03:07.584Z,23.30
2018-09-13T11:04:08.197Z,24.20
2018-09-13T11:05:07.515Z,23.50
2018-09-13T11:06:07.884Z,23.20
2018-09-13T11:07:26.179Z,22.00
2018-09-13T11:08:09.281Z,22.30
2018-09-13T11:09:07.516Z,21.80
2018-09-13T11:10:14.151Z,21.50
2018-09-13T11:11:07.690Z,22.50
2018-09-13T11:12:08.043Z,23.20
2018-09-13T11:13:07.822Z,21.80
2018-09-13T11:14:07.484Z,22.90
2018-09-13T11:15:07.403Z,21.20
2018-09-13T11:16:07.341Z,21.60
2018-09-13T11:17:07.951Z,19.90
2018-09-13T11:18:08.388Z,19.30
2018-09-13T11:19:07.495Z,19.80
2018-09-13T11:20:07.300Z,19.70
2018-09-13T11:21:07.280Z,20.00
2018-09-13T11:22:07.281Z,20.00
2018-09-13T11:23:07.253Z,19.70
2018-09-13T11:24:07.362Z,18.70
2018-09-13T11:25:07.379Z,17.70
2018-09-13T11:26:07.234Z,17.30
2018-09-13T11:27:07.219Z,17.90
2018-09-13T11:28:07.217Z,16.60
2018-09-13T11:29:07.454Z,16.20
2018-09-13T11:30:26.007Z,15.80
2018-09-13T11:31:07.173Z,15.20
2018-09-13T11:32:07.148Z,14.60
2018-09-13T11:33:08.231Z,14.20
2018-09-13T11:34:07.137Z,14.50
2018-09-13T11:35:07.119Z,13.60
2018-09-13T11:36:07.142Z,13.70
2018-09-13T11:37:07.244Z,12.90
2018-09-13T11:38:07.097Z,12.30
2018-09-13T11:39:07.085Z,12.10
2018-09-13T11:40:07.160Z,11.90
2018-09-13T11:41:07.568Z,11.20
2018-09-13T11:42:07.101Z,12.00
2018-09-13T11:43:09.268Z,12.30
2018-09-13T11:44:07.266Z,12.40
2018-09-13T11:45:07.023Z,11.70
2018-09-13T11:46:07.017Z,11.20
2018-09-13T11:47:07.129Z,11.40
2018-09-13T11:48:08.667Z,10.50
2018-09-13T11:49:07.014Z,11.20
2018-09-13T11:50:06.976Z,10.20
2018-09-13T11:51:06.937Z,10.00
2018-09-13T11:52:09.720Z,9.90
2018-09-13T11:53:06.924Z,10.30
2018-09-13T11:54:06.966Z,10.10
2018-09-13T11:55:06.894Z,10.20
2018-09-13T11:56:07.148Z,10.40
2018-09-13T11:57:06.875Z,10.80
2018-09-13T11:58:06.942Z,10.00
2018-09-13T11:59:07.007Z,9.90
2018-09-13T12:00:17.454Z,10.10
2018-09-13T12:01:06.875Z,9.90
2018-09-13T12:02:06.917Z,10.70
2018-09-13T12:03:06.813Z,10.60
2018-09-13T12:04:06.805Z,10.50
2018-09-13T12:05:06.799Z,11.00
2018-09-13T12:06:06.823Z,12.10
2018-09-13T12:07:07.302Z,12.30
2018-09-13T12:08:06.901Z,11.50
2018-09-13T12:09:06.743Z,10.60
2018-09-13T12:10:06.733Z,11.00
2018-09-13T12:11:06.727Z,11.50
2018-09-13T12:12:06.718Z,11.90
2018-09-13T12:13:07.043Z,11.40
2018-09-13T12:14:06.951Z,11.80
2018-09-13T12:15:06.679Z,11.70
2018-09-13T12:16:06.675Z,11.20
2018-09-13T12:17:06.918Z,10.90
2018-09-13T12:18:06.699Z,10.90
2018-09-13T12:19:06.664Z,11.30
2018-09-13T12:20:06.632Z,11.70
2018-09-13T12:21:06.617Z,11.20
2018-09-13T12:22:06.676Z,10.70
2018-09-13T12:23:06.598Z,10.60
2018-09-13T12:24:06.969Z,9.20
2018-09-13T12:25:06.684Z,8.20
2018-09-13T12:26:06.564Z,8.60
2018-09-13T12:27:06.552Z,9.80
2018-09-13T12:28:06.537Z,10.20
2018-09-13T12:29:06.792Z,9.50
2018-09-13T12:30:07.137Z,10.20
2018-09-13T12:31:06.506Z,10.80
2018-09-13T12:32:06.502Z,10.50
2018-09-13T12:33:06.502Z,11.00
2018-09-13T12:34:06.746Z,10.80
2018-09-13T12:35:06.465Z,11.60
2018-09-13T12:36:06.522Z,11.10
2018-09-13T12:37:06.701Z,11.50
2018-09-13T12:38:06.560Z,11.30
2018-09-13T12:39:06.702Z,11.30
2018-09-13T12:40:06.407Z,10.80
2018-09-13T12:41:06.397Z,11.20
2018-09-13T12:42:06.389Z,11.10
2018-09-13T12:43:06.381Z,11.00
2018-09-13T12:44:06.479Z,10.60
2018-09-13T12:45:06.359Z,11.60
2018-09-13T12:46:06.834Z,11.10
2018-09-13T12:47:06.486Z,10.80
2018-09-13T12:48:06.416Z,10.30
2018-09-13T12:49:06.340Z,10.90
2018-09-13T12:50:06.388Z,11.70
2018-09-13T12:51:06.294Z,10.70
2018-09-13T12:52:06.311Z,11.00
2018-09-13T12:53:08.352Z,10.70
2018-09-13T12:54:06.798Z,11.10
2018-09-13T12:55:06.252Z,10.70
2018-09-13T12:56:06.245Z,10.60